sensor_id;sensor_type;location;lat;lon;timestamp;temperature;humidity
12039;DHT22;6080;48.818;9.526;2022-09-03T00:00:21;14.60;99.90
12039;DHT22;6080;48.818;9.526;2022-09-03T00:05:48;14.50;99.90
12039;DHT22;6080;48.818;9.526;2022-09-03T00:08:43;14.30;99.90
12039;DHT22;6080;48.818;9.526;2022-09-03T00:11:34;14.30;99.90
12039;DHT22;6080;48.818;9.526;2022-09-03T00:14:10;14.30;99.90
12039;DHT22;6080;48.818;9.526;2022-09-03T00:16:59;14.40;99.90
12039;DHT22;6080;48.818;9.526;2022-09-03T00:19:33;14.50;99.90
12039;DHT22;6080;48.818;9.526;2022-09-03T00:22:15;14.60;99.90
12039;DHT22;6080;48.818;9.526;2022-09-03T00:24:43;14.70;99.90
12039;DHT22;6080;48.818;9.526;2022-09-03T00:27:22;14.70;99.90
12039;DHT22;6080;48.818;9.526;2022-09-03T00:32:33;14.60;99.90
12039;DHT22;6080;48.818;9.526;2022-09-03T00:35:06;14.60;99.90
12039;DHT22;6080;48.818;9.526;2022-09-03T00:37:34;14.60;99.90
12039;DHT22;6080;48.818;9.526;2022-09-03T00:39:59;14.70;99.90
12039;DHT22;6080;48.818;9.526;2022-09-03T00:45:17;14.70;99.90
12039;DHT22;6080;48.818;9.526;2022-09-03T00:48:05;14.70;99.90
12039;DHT22;6080;48.818;9.526;2022-09-03T00:50:40;14.80;99.90
12039;DHT22;6080;48.818;9.526;2022-09-03T00:59:47;15.00;99.90
12039;DHT22;6080;48.818;9.526;2022-09-03T01:02:18;15.00;99.90
12039;DHT22;6080;48.818;9.526;2022-09-03T01:05:10;15.00;99.90
12039;DHT22;6080;48.818;9.526;2022-09-03T01:07:54;15.00;99.90
12039;DHT22;6080;48.818;9.526;2022-09-03T01:10:26;15.20;99.90
12039;DHT22;6080;48.818;9.526;2022-09-03T01:26:51;15.40;99.90
12039;DHT22;6080;48.818;9.526;2022-09-03T01:29:34;15.50;99.90
12039;DHT22;6080;48.818;9.526;2022-09-03T01:42:46;15.60;99.90
12039;DHT22;6080;48.818;9.526;2022-09-03T01:56:13;15.70;99.90
12039;DHT22;6080;48.818;9.526;2022-09-03T01:58:48;15.80;99.90
12039;DHT22;6080;48.818;9.526;2022-09-03T02:01:23;15.80;99.90
12039;DHT22;6080;48.818;9.526;2022-09-03T02:03:51;15.90;99.90
12039;DHT22;6080;48.818;9.526;2022-09-03T02:06:22;15.90;99.90
12039;DHT22;6080;48.818;9.526;2022-09-03T02:08:48;15.90;99.90
12039;DHT22;6080;48.818;9.526;2022-09-03T02:11:14;15.90;99.90
12039;DHT22;6080;48.818;9.526;2022-09-03T02:13:46;15.90;99.90
12039;DHT22;6080;48.818;9.526;2022-09-03T02:16:15;16.00;99.90
12039;DHT22;6080;48.818;9.526;2022-09-03T02:18:49;16.00;99.90
12039;DHT22;6080;48.818;9.526;2022-09-03T02:21:20;16.00;99.90
12039;DHT22;6080;48.818;9.526;2022-09-03T02:23:47;16.00;99.90
12039;DHT22;6080;48.818;9.526;2022-09-03T02:26:17;16.00;99.90
12039;DHT22;6080;48.818;9.526;2022-09-03T02:28:44;16.00;99.90
12039;DHT22;6080;48.818;9.526;2022-09-03T02:31:10;16.00;99.90
12039;DHT22;6080;48.818;9.526;2022-09-03T02:33:39;16.00;99.90
12039;DHT22;6080;48.818;9.526;2022-09-03T02:36:09;16.00;99.90
12039;DHT22;6080;48.818;9.526;2022-09-03T02:38:37;16.00;99.90
12039;DHT22;6080;48.818;9.526;2022-09-03T02:41:03;16.00;99.90
12039;DHT22;6080;48.818;9.526;2022-09-03T02:43:42;16.10;99.90
12039;DHT22;6080;48.818;9.526;2022-09-03T02:46:16;16.20;99.90
12039;DHT22;6080;48.818;9.526;2022-09-03T02:48:42;16.20;99.90
12039;DHT22;6080;48.818;9.526;2022-09-03T02:51:08;16.20;99.90
12039;DHT22;6080;48.818;9.526;2022-09-03T02:53:34;16.20;99.90
12039;DHT22;6080;48.818;9.526;2022-09-03T02:56:01;16.30;99.90
12039;DHT22;6080;48.818;9.526;2022-09-03T02:58:27;16.30;99.90
12039;DHT22;6080;48.818;9.526;2022-09-03T03:00:54;16.20;99.90
12039;DHT22;6080;48.818;9.526;2022-09-03T03:03:20;16.20;99.90
12039;DHT22;6080;48.818;9.526;2022-09-03T03:05:52;16.10;99.90
12039;DHT22;6080;48.818;9.526;2022-09-03T03:08:19;16.10;99.90
12039;DHT22;6080;48.818;9.526;2022-09-03T03:10:52;16.00;99.90
12039;DHT22;6080;48.818;9.526;2022-09-03T03:13:18;15.90;99.90
12039;DHT22;6080;48.818;9.526;2022-09-03T03:15:44;15.80;99.90
12039;DHT22;6080;48.818;9.526;2022-09-03T03:18:12;15.80;99.90
12039;DHT22;6080;48.818;9.526;2022-09-03T03:20:38;15.70;99.90
12039;DHT22;6080;48.818;9.526;2022-09-03T03:23:05;15.70;99.90
12039;DHT22;6080;48.818;9.526;2022-09-03T03:25:32;15.60;99.90
12039;DHT22;6080;48.818;9.526;2022-09-03T03:27:58;15.60;99.90
12039;DHT22;6080;48.818;9.526;2022-09-03T03:30:26;15.60;99.90
12039;DHT22;6080;48.818;9.526;2022-09-03T03:32:53;15.70;99.90
12039;DHT22;6080;48.818;9.526;2022-09-03T03:35:19;15.70;99.90
12039;DHT22;6080;48.818;9.526;2022-09-03T03:37:45;15.70;99.90
12039;DHT22;6080;48.818;9.526;2022-09-03T03:40:12;15.60;99.90
12039;DHT22;6080;48.818;9.526;2022-09-03T03:42:39;15.60;99.90
12039;DHT22;6080;48.818;9.526;2022-09-03T03:45:06;15.60;99.90
12039;DHT22;6080;48.818;9.526;2022-09-03T03:47:32;15.50;99.90
12039;DHT22;6080;48.818;9.526;2022-09-03T03:49:59;15.60;99.90
12039;DHT22;6080;48.818;9.526;2022-09-03T03:52:26;15.70;99.90
12039;DHT22;6080;48.818;9.526;2022-09-03T03:54:52;15.70;99.90
12039;DHT22;6080;48.818;9.526;2022-09-03T03:57:19;15.70;99.90
12039;DHT22;6080;48.818;9.526;2022-09-03T03:59:47;15.80;99.90
12039;DHT22;6080;48.818;9.526;2022-09-03T04:02:13;15.70;99.90
12039;DHT22;6080;48.818;9.526;2022-09-03T04:04:40;15.80;99.90
12039;DHT22;6080;48.818;9.526;2022-09-03T04:07:06;15.90;99.90
12039;DHT22;6080;48.818;9.526;2022-09-03T04:09:32;15.90;99.90
12039;DHT22;6080;48.818;9.526;2022-09-03T04:11:59;16.00;99.90
12039;DHT22;6080;48.818;9.526;2022-09-03T04:14:25;16.00;99.90
12039;DHT22;6080;48.818;9.526;2022-09-03T04:16:53;16.10;99.90
12039;DHT22;6080;48.818;9.526;2022-09-03T04:19:19;16.10;99.90
12039;DHT22;6080;48.818;9.526;2022-09-03T04:21:45;16.20;99.90
12039;DHT22;6080;48.818;9.526;2022-09-03T04:24:11;16.20;99.90
12039;DHT22;6080;48.818;9.526;2022-09-03T04:26:38;16.20;99.90
12039;DHT22;6080;48.818;9.526;2022-09-03T04:29:09;16.20;99.90
12039;DHT22;6080;48.818;9.526;2022-09-03T04:31:37;16.30;99.90
12039;DHT22;6080;48.818;9.526;2022-09-03T04:34:04;16.30;99.90
12039;DHT22;6080;48.818;9.526;2022-09-03T04:36:33;16.30;99.90
12039;DHT22;6080;48.818;9.526;2022-09-03T04:39:00;16.30;99.90
12039;DHT22;6080;48.818;9.526;2022-09-03T04:41:28;16.40;99.90
12039;DHT22;6080;48.818;9.526;2022-09-03T04:43:56;16.40;99.90
12039;DHT22;6080;48.818;9.526;2022-09-03T04:46:24;16.40;99.90
12039;DHT22;6080;48.818;9.526;2022-09-03T04:48:52;16.50;99.90
12039;DHT22;6080;48.818;9.526;2022-09-03T04:51:23;16.50;99.90
12039;DHT22;6080;48.818;9.526;2022-09-03T04:53:57;16.50;99.90
12039;DHT22;6080;48.818;9.526;2022-09-03T04:56:30;16.50;99.90
12039;DHT22;6080;48.818;9.526;2022-09-03T04:58:58;16.50;99.90
12039;DHT22;6080;48.818;9.526;2022-09-03T05:01:26;16.50;99.90
12039;DHT22;6080;48.818;9.526;2022-09-03T05:03:54;16.50;99.90
12039;DHT22;6080;48.818;9.526;2022-09-03T05:06:20;16.50;99.90
12039;DHT22;6080;48.818;9.526;2022-09-03T05:08:50;16.60;99.90
12039;DHT22;6080;48.818;9.526;2022-09-03T05:11:17;16.60;99.90
12039;DHT22;6080;48.818;9.526;2022-09-03T05:13:46;16.70;99.90
12039;DHT22;6080;48.818;9.526;2022-09-03T05:16:13;16.70;99.90
12039;DHT22;6080;48.818;9.526;2022-09-03T05:18:39;16.70;99.90
12039;DHT22;6080;48.818;9.526;2022-09-03T05:21:09;16.70;99.90
12039;DHT22;6080;48.818;9.526;2022-09-03T05:23:37;16.70;99.90
12039;DHT22;6080;48.818;9.526;2022-09-03T05:26:06;16.70;99.90
12039;DHT22;6080;48.818;9.526;2022-09-03T05:28:36;16.80;99.90
12039;DHT22;6080;48.818;9.526;2022-09-03T05:31:05;16.80;99.90
12039;DHT22;6080;48.818;9.526;2022-09-03T05:33:43;16.80;99.90
12039;DHT22;6080;48.818;9.526;2022-09-03T05:36:15;16.70;99.90
12039;DHT22;6080;48.818;9.526;2022-09-03T05:38:41;16.70;99.90
12039;DHT22;6080;48.818;9.526;2022-09-03T05:41:09;16.70;99.90
12039;DHT22;6080;48.818;9.526;2022-09-03T05:43:35;16.70;99.90
12039;DHT22;6080;48.818;9.526;2022-09-03T05:46:04;16.80;99.90
12039;DHT22;6080;48.818;9.526;2022-09-03T05:48:35;16.90;99.90
12039;DHT22;6080;48.818;9.526;2022-09-03T05:51:03;17.10;99.90
12039;DHT22;6080;48.818;9.526;2022-09-03T05:53:31;17.20;99.90
12039;DHT22;6080;48.818;9.526;2022-09-03T05:55:59;17.40;99.90
12039;DHT22;6080;48.818;9.526;2022-09-03T05:58:33;17.40;99.90
12039;DHT22;6080;48.818;9.526;2022-09-03T06:00:59;17.50;99.90
12039;DHT22;6080;48.818;9.526;2022-09-03T06:03:33;17.50;99.90
12039;DHT22;6080;48.818;9.526;2022-09-03T06:06:00;17.60;99.90
12039;DHT22;6080;48.818;9.526;2022-09-03T06:08:25;17.60;99.90
12039;DHT22;6080;48.818;9.526;2022-09-03T06:10:57;17.70;99.90
12039;DHT22;6080;48.818;9.526;2022-09-03T06:13:23;17.80;99.90
12039;DHT22;6080;48.818;9.526;2022-09-03T06:15:49;17.90;99.90
12039;DHT22;6080;48.818;9.526;2022-09-03T06:18:15;18.00;99.90
12039;DHT22;6080;48.818;9.526;2022-09-03T06:20:41;18.20;99.90
12039;DHT22;6080;48.818;9.526;2022-09-03T06:23:07;18.20;99.90
12039;DHT22;6080;48.818;9.526;2022-09-03T06:25:33;18.20;99.90
12039;DHT22;6080;48.818;9.526;2022-09-03T06:27:59;18.10;99.90
12039;DHT22;6080;48.818;9.526;2022-09-03T06:30:26;18.10;99.90
12039;DHT22;6080;48.818;9.526;2022-09-03T06:32:52;18.10;99.90
12039;DHT22;6080;48.818;9.526;2022-09-03T06:35:19;18.10;99.90
12039;DHT22;6080;48.818;9.526;2022-09-03T06:37:45;18.20;99.90
12039;DHT22;6080;48.818;9.526;2022-09-03T06:40:11;18.10;99.90
12039;DHT22;6080;48.818;9.526;2022-09-03T06:42:39;18.10;99.90
12039;DHT22;6080;48.818;9.526;2022-09-03T06:45:07;18.00;99.90
12039;DHT22;6080;48.818;9.526;2022-09-03T06:47:34;17.90;99.90
12039;DHT22;6080;48.818;9.526;2022-09-03T06:50:00;17.80;99.90
12039;DHT22;6080;48.818;9.526;2022-09-03T06:52:27;17.70;99.90
12039;DHT22;6080;48.818;9.526;2022-09-03T06:54:53;17.80;99.90
12039;DHT22;6080;48.818;9.526;2022-09-03T06:57:19;17.80;99.90
12039;DHT22;6080;48.818;9.526;2022-09-03T06:59:45;17.90;99.90
12039;DHT22;6080;48.818;9.526;2022-09-03T07:02:11;17.90;99.90
12039;DHT22;6080;48.818;9.526;2022-09-03T07:04:37;17.90;99.90
12039;DHT22;6080;48.818;9.526;2022-09-03T07:07:03;17.90;99.90
12039;DHT22;6080;48.818;9.526;2022-09-03T07:09:28;18.00;99.90
12039;DHT22;6080;48.818;9.526;2022-09-03T07:11:56;18.20;99.90
12039;DHT22;6080;48.818;9.526;2022-09-03T07:14:22;18.40;99.90
12039;DHT22;6080;48.818;9.526;2022-09-03T07:16:49;18.30;99.90
12039;DHT22;6080;48.818;9.526;2022-09-03T07:19:15;18.30;99.90
12039;DHT22;6080;48.818;9.526;2022-09-03T07:21:42;18.30;99.90
12039;DHT22;6080;48.818;9.526;2022-09-03T07:24:08;18.30;99.90
12039;DHT22;6080;48.818;9.526;2022-09-03T07:26:37;18.40;99.90
12039;DHT22;6080;48.818;9.526;2022-09-03T07:29:04;18.40;99.90
12039;DHT22;6080;48.818;9.526;2022-09-03T07:31:37;18.50;99.90
12039;DHT22;6080;48.818;9.526;2022-09-03T07:34:05;18.60;99.90
12039;DHT22;6080;48.818;9.526;2022-09-03T07:36:35;18.70;99.90
12039;DHT22;6080;48.818;9.526;2022-09-03T07:39:03;18.80;99.90
12039;DHT22;6080;48.818;9.526;2022-09-03T07:41:30;18.80;99.90
12039;DHT22;6080;48.818;9.526;2022-09-03T07:43:58;18.90;99.90
12039;DHT22;6080;48.818;9.526;2022-09-03T07:46:25;19.00;99.90
12039;DHT22;6080;48.818;9.526;2022-09-03T07:48:54;19.10;99.90
12039;DHT22;6080;48.818;9.526;2022-09-03T07:51:22;19.20;99.90
12039;DHT22;6080;48.818;9.526;2022-09-03T07:53:55;19.30;99.90
12039;DHT22;6080;48.818;9.526;2022-09-03T07:56:23;19.40;99.90
12039;DHT22;6080;48.818;9.526;2022-09-03T07:58:50;19.60;99.90
12039;DHT22;6080;48.818;9.526;2022-09-03T08:01:18;19.60;99.90
12039;DHT22;6080;48.818;9.526;2022-09-03T08:03:48;19.50;99.90
12039;DHT22;6080;48.818;9.526;2022-09-03T08:06:16;19.70;99.90
12039;DHT22;6080;48.818;9.526;2022-09-03T08:08:43;20.00;99.90
12039;DHT22;6080;48.818;9.526;2022-09-03T08:11:16;20.10;99.90
12039;DHT22;6080;48.818;9.526;2022-09-03T08:13:48;20.20;99.90
12039;DHT22;6080;48.818;9.526;2022-09-03T08:16:16;20.30;99.90
12039;DHT22;6080;48.818;9.526;2022-09-03T08:18:42;20.60;99.90
12039;DHT22;6080;48.818;9.526;2022-09-03T08:21:13;20.70;99.90
12039;DHT22;6080;48.818;9.526;2022-09-03T08:23:42;21.00;99.90
12039;DHT22;6080;48.818;9.526;2022-09-03T08:26:10;21.40;99.90
12039;DHT22;6080;48.818;9.526;2022-09-03T08:28:36;21.30;99.90
12039;DHT22;6080;48.818;9.526;2022-09-03T08:31:14;21.40;99.90
12039;DHT22;6080;48.818;9.526;2022-09-03T08:33:42;21.40;99.90
12039;DHT22;6080;48.818;9.526;2022-09-03T08:36:11;21.50;99.90
12039;DHT22;6080;48.818;9.526;2022-09-03T08:38:38;21.60;99.90
12039;DHT22;6080;48.818;9.526;2022-09-03T08:41:15;21.90;99.90
12039;DHT22;6080;48.818;9.526;2022-09-03T08:46:11;22.60;99.90
12039;DHT22;6080;48.818;9.526;2022-09-03T08:48:37;23.10;99.90
12039;DHT22;6080;48.818;9.526;2022-09-03T08:51:03;23.50;99.90
12039;DHT22;6080;48.818;9.526;2022-09-03T08:53:48;23.70;99.90
12039;DHT22;6080;48.818;9.526;2022-09-03T08:56:26;23.60;99.90
12039;DHT22;6080;48.818;9.526;2022-09-03T08:58:54;23.40;99.90
12039;DHT22;6080;48.818;9.526;2022-09-03T09:04:52;23.10;99.90
12039;DHT22;6080;48.818;9.526;2022-09-03T09:07:43;23.20;99.90
12039;DHT22;6080;48.818;9.526;2022-09-03T09:15:35;23.60;99.90
12039;DHT22;6080;48.818;9.526;2022-09-03T09:20:53;25.10;99.90
12039;DHT22;6080;48.818;9.526;2022-09-03T09:23:36;26.20;99.90
12039;DHT22;6080;48.818;9.526;2022-09-03T09:26:09;27.00;99.90
12039;DHT22;6080;48.818;9.526;2022-09-03T09:28:38;27.20;99.90
12039;DHT22;6080;48.818;9.526;2022-09-03T09:31:06;28.00;99.90
12039;DHT22;6080;48.818;9.526;2022-09-03T09:33:33;28.80;98.00
12039;DHT22;6080;48.818;9.526;2022-09-03T09:36:05;29.30;96.50
12039;DHT22;6080;48.818;9.526;2022-09-03T09:38:35;29.60;94.40
12039;DHT22;6080;48.818;9.526;2022-09-03T09:41:09;29.30;93.70
12039;DHT22;6080;48.818;9.526;2022-09-03T09:43:35;28.20;94.70
12039;DHT22;6080;48.818;9.526;2022-09-03T09:46:14;27.60;95.30
12039;DHT22;6080;48.818;9.526;2022-09-03T09:48:51;27.30;95.60
12039;DHT22;6080;48.818;9.526;2022-09-03T09:51:29;26.60;96.60
12039;DHT22;6080;48.818;9.526;2022-09-03T09:56:38;25.90;97.80
12039;DHT22;6080;48.818;9.526;2022-09-03T09:59:09;26.10;97.50
12039;DHT22;6080;48.818;9.526;2022-09-03T10:01:38;26.00;98.10
12039;DHT22;6080;48.818;9.526;2022-09-03T10:04:12;25.90;98.10
12039;DHT22;6080;48.818;9.526;2022-09-03T10:06:53;25.90;97.80
12039;DHT22;6080;48.818;9.526;2022-09-03T10:09:22;25.80;98.50
12039;DHT22;6080;48.818;9.526;2022-09-03T10:12:08;25.80;98.40
12039;DHT22;6080;48.818;9.526;2022-09-03T10:14:50;26.20;98.40
12039;DHT22;6080;48.818;9.526;2022-09-03T10:17:26;26.40;97.40
12039;DHT22;6080;48.818;9.526;2022-09-03T10:20:03;26.60;97.20
12039;DHT22;6080;48.818;9.526;2022-09-03T10:22:54;27.00;97.00
12039;DHT22;6080;48.818;9.526;2022-09-03T10:25:22;27.50;96.60
12039;DHT22;6080;48.818;9.526;2022-09-03T10:27:52;27.30;96.00
12039;DHT22;6080;48.818;9.526;2022-09-03T10:30:19;27.70;95.40
12039;DHT22;6080;48.818;9.526;2022-09-03T10:35:38;27.80;94.70
12039;DHT22;6080;48.818;9.526;2022-09-03T10:44:22;28.10;94.40
12039;DHT22;6080;48.818;9.526;2022-09-03T10:55:19;28.00;93.70
12039;DHT22;6080;48.818;9.526;2022-09-03T10:58:15;27.60;93.90
12039;DHT22;6080;48.818;9.526;2022-09-03T11:00:54;27.20;95.10
12039;DHT22;6080;48.818;9.526;2022-09-03T11:06:29;27.30;95.00
12039;DHT22;6080;48.818;9.526;2022-09-03T11:11:39;26.80;95.00
12039;DHT22;6080;48.818;9.526;2022-09-03T11:14:09;26.80;95.00
12039;DHT22;6080;48.818;9.526;2022-09-03T11:16:47;26.80;94.80
12039;DHT22;6080;48.818;9.526;2022-09-03T11:19:22;27.00;95.60
12039;DHT22;6080;48.818;9.526;2022-09-03T11:21:51;27.00;95.50
12039;DHT22;6080;48.818;9.526;2022-09-03T11:24:27;27.40;95.60
12039;DHT22;6080;48.818;9.526;2022-09-03T11:32:08;27.50;93.40
12039;DHT22;6080;48.818;9.526;2022-09-03T11:34:50;27.50;93.30
12039;DHT22;6080;48.818;9.526;2022-09-03T11:37:18;27.50;95.10
12039;DHT22;6080;48.818;9.526;2022-09-03T11:42:35;27.00;94.70
12039;DHT22;6080;48.818;9.526;2022-09-03T11:47:57;26.70;95.20
12039;DHT22;6080;48.818;9.526;2022-09-03T11:53:08;26.30;95.40
12039;DHT22;6080;48.818;9.526;2022-09-03T11:55:55;26.10;96.40
12039;DHT22;6080;48.818;9.526;2022-09-03T11:58:32;25.90;95.90
12039;DHT22;6080;48.818;9.526;2022-09-03T12:01:02;25.70;96.90
12039;DHT22;6080;48.818;9.526;2022-09-03T12:03:46;25.40;97.10
12039;DHT22;6080;48.818;9.526;2022-09-03T12:09:19;25.30;98.80
12039;DHT22;6080;48.818;9.526;2022-09-03T12:15:10;24.90;98.70
12039;DHT22;6080;48.818;9.526;2022-09-03T12:20:58;24.70;99.90
12039;DHT22;6080;48.818;9.526;2022-09-03T12:23:45;24.70;99.90
12039;DHT22;6080;48.818;9.526;2022-09-03T12:26:16;24.60;99.90
12039;DHT22;6080;48.818;9.526;2022-09-03T12:28:45;24.40;99.90
12039;DHT22;6080;48.818;9.526;2022-09-03T12:31:26;24.20;99.90
12039;DHT22;6080;48.818;9.526;2022-09-03T12:34:04;24.10;99.90
12039;DHT22;6080;48.818;9.526;2022-09-03T12:36:40;23.80;99.90
12039;DHT22;6080;48.818;9.526;2022-09-03T12:42:07;23.50;99.90
12039;DHT22;6080;48.818;9.526;2022-09-03T12:49:45;22.10;99.90
12039;DHT22;6080;48.818;9.526;2022-09-03T12:54:59;21.10;99.90
12039;DHT22;6080;48.818;9.526;2022-09-03T12:57:31;20.70;99.90
12039;DHT22;6080;48.818;9.526;2022-09-03T12:59:59;20.30;99.90
12039;DHT22;6080;48.818;9.526;2022-09-03T13:02:35;19.80;99.90
12039;DHT22;6080;48.818;9.526;2022-09-03T13:05:03;19.40;99.90
12039;DHT22;6080;48.818;9.526;2022-09-03T13:07:35;18.90;99.90
12039;DHT22;6080;48.818;9.526;2022-09-03T13:10:06;18.60;99.90
12039;DHT22;6080;48.818;9.526;2022-09-03T13:12:46;18.40;99.90
12039;DHT22;6080;48.818;9.526;2022-09-03T13:15:21;18.20;99.90
12039;DHT22;6080;48.818;9.526;2022-09-03T13:18:09;18.00;99.90
12039;DHT22;6080;48.818;9.526;2022-09-03T13:26:47;17.90;99.90
12039;DHT22;6080;48.818;9.526;2022-09-03T13:31:48;17.50;99.90
12039;DHT22;6080;48.818;9.526;2022-09-03T13:36:46;17.40;99.90
12039;DHT22;6080;48.818;9.526;2022-09-03T13:39:39;17.30;99.90
12039;DHT22;6080;48.818;9.526;2022-09-03T13:42:15;17.30;99.90
12039;DHT22;6080;48.818;9.526;2022-09-03T13:45:28;17.40;99.90
12039;DHT22;6080;48.818;9.526;2022-09-03T13:48:16;17.40;99.90
12039;DHT22;6080;48.818;9.526;2022-09-03T13:53:47;17.40;99.90
12039;DHT22;6080;48.818;9.526;2022-09-03T14:10:43;19.50;99.90
12039;DHT22;6080;48.818;9.526;2022-09-03T14:19:32;23.10;99.90
12039;DHT22;6080;48.818;9.526;2022-09-03T14:25:19;24.70;99.90
12039;DHT22;6080;48.818;9.526;2022-09-03T14:27:43;26.00;99.90
12039;DHT22;6080;48.818;9.526;2022-09-03T14:35:49;28.40;99.90
12039;DHT22;6080;48.818;9.526;2022-09-03T14:43:54;27.70;99.90
12039;DHT22;6080;48.818;9.526;2022-09-03T14:55:44;27.50;99.90
12039;DHT22;6080;48.818;9.526;2022-09-03T15:00:31;29.60;99.90
12039;DHT22;6080;48.818;9.526;2022-09-03T15:03:14;29.80;99.90
12039;DHT22;6080;48.818;9.526;2022-09-03T15:05:53;28.50;99.90
12039;DHT22;6080;48.818;9.526;2022-09-03T15:08:35;26.70;99.90
12039;DHT22;6080;48.818;9.526;2022-09-03T15:11:16;25.50;99.90
12039;DHT22;6080;48.818;9.526;2022-09-03T15:14:18;24.10;99.90
12039;DHT22;6080;48.818;9.526;2022-09-03T15:24:52;22.10;99.90
12039;DHT22;6080;48.818;9.526;2022-09-03T15:30:11;21.70;99.90
12039;DHT22;6080;48.818;9.526;2022-09-03T15:43:21;22.80;99.90
12039;DHT22;6080;48.818;9.526;2022-09-03T15:45:50;23.40;99.90
12039;DHT22;6080;48.818;9.526;2022-09-03T15:51:17;25.20;99.90
12039;DHT22;6080;48.818;9.526;2022-09-03T15:53:59;25.80;99.90
12039;DHT22;6080;48.818;9.526;2022-09-03T15:56:37;25.70;99.90
12039;DHT22;6080;48.818;9.526;2022-09-03T15:59:30;25.30;99.90
12039;DHT22;6080;48.818;9.526;2022-09-03T16:02:11;24.80;99.90
12039;DHT22;6080;48.818;9.526;2022-09-03T16:10:09;23.50;99.90
12039;DHT22;6080;48.818;9.526;2022-09-03T16:12:58;23.20;99.90
12039;DHT22;6080;48.818;9.526;2022-09-03T16:15:36;23.00;99.90
12039;DHT22;6080;48.818;9.526;2022-09-03T16:20:37;22.60;99.90
12039;DHT22;6080;48.818;9.526;2022-09-03T16:23:22;22.30;99.90
12039;DHT22;6080;48.818;9.526;2022-09-03T16:28:45;22.00;99.90
12039;DHT22;6080;48.818;9.526;2022-09-03T16:34:14;21.70;99.90
12039;DHT22;6080;48.818;9.526;2022-09-03T16:42:10;21.20;99.90
12039;DHT22;6080;48.818;9.526;2022-09-03T16:56:09;20.60;99.90
12039;DHT22;6080;48.818;9.526;2022-09-03T17:06:40;20.50;99.90
12039;DHT22;6080;48.818;9.526;2022-09-03T17:12:48;20.50;99.90
12039;DHT22;6080;48.818;9.526;2022-09-03T17:18:11;20.30;99.90
12039;DHT22;6080;48.818;9.526;2022-09-03T17:26:37;20.10;99.90
12039;DHT22;6080;48.818;9.526;2022-09-03T17:29:11;20.10;99.90
12039;DHT22;6080;48.818;9.526;2022-09-03T17:34:42;19.90;99.90
12039;DHT22;6080;48.818;9.526;2022-09-03T17:46:12;20.00;99.90
12039;DHT22;6080;48.818;9.526;2022-09-03T17:48:51;19.90;99.90
12039;DHT22;6080;48.818;9.526;2022-09-03T17:51:26;19.90;99.90
12039;DHT22;6080;48.818;9.526;2022-09-03T17:53:56;19.80;99.90
12039;DHT22;6080;48.818;9.526;2022-09-03T18:01:59;19.40;99.90
12039;DHT22;6080;48.818;9.526;2022-09-03T18:04:42;19.30;99.90
12039;DHT22;6080;48.818;9.526;2022-09-03T18:10:03;19.10;99.90
12039;DHT22;6080;48.818;9.526;2022-09-03T18:12:45;19.00;99.90
12039;DHT22;6080;48.818;9.526;2022-09-03T18:15:26;18.90;99.90
12039;DHT22;6080;48.818;9.526;2022-09-03T18:18:00;18.90;99.90
12039;DHT22;6080;48.818;9.526;2022-09-03T18:20:37;18.80;99.90
12039;DHT22;6080;48.818;9.526;2022-09-03T18:26:30;18.60;99.90
12039;DHT22;6080;48.818;9.526;2022-09-03T18:29:26;18.60;99.90
12039;DHT22;6080;48.818;9.526;2022-09-03T18:32:12;18.50;99.90
12039;DHT22;6080;48.818;9.526;2022-09-03T18:34:57;18.50;99.90
12039;DHT22;6080;48.818;9.526;2022-09-03T18:37:41;18.50;99.90
12039;DHT22;6080;48.818;9.526;2022-09-03T18:40:34;18.40;99.90
12039;DHT22;6080;48.818;9.526;2022-09-03T18:46:24;18.40;99.90
12039;DHT22;6080;48.818;9.526;2022-09-03T18:49:28;18.30;99.90
12039;DHT22;6080;48.818;9.526;2022-09-03T18:52:53;18.20;99.90
12039;DHT22;6080;48.818;9.526;2022-09-03T18:58:56;18.10;99.90
12039;DHT22;6080;48.818;9.526;2022-09-03T19:01:42;18.10;99.90
12039;DHT22;6080;48.818;9.526;2022-09-03T19:07:44;17.80;99.90
12039;DHT22;6080;48.818;9.526;2022-09-03T19:10:49;17.70;99.90
12039;DHT22;6080;48.818;9.526;2022-09-03T19:13:36;17.70;99.90
12039;DHT22;6080;48.818;9.526;2022-09-03T19:22:26;17.60;99.90
12039;DHT22;6080;48.818;9.526;2022-09-03T19:25:14;17.50;99.90
12039;DHT22;6080;48.818;9.526;2022-09-03T19:28:21;17.40;99.90
12039;DHT22;6080;48.818;9.526;2022-09-03T19:34:20;17.20;99.90
12039;DHT22;6080;48.818;9.526;2022-09-03T19:37:32;17.10;99.90
12039;DHT22;6080;48.818;9.526;2022-09-03T19:46:59;17.00;99.90
12039;DHT22;6080;48.818;9.526;2022-09-03T19:50:05;17.00;99.90
12039;DHT22;6080;48.818;9.526;2022-09-03T19:52:59;17.10;99.90
12039;DHT22;6080;48.818;9.526;2022-09-03T19:55:48;17.10;99.90
12039;DHT22;6080;48.818;9.526;2022-09-03T19:58:39;17.10;99.90
12039;DHT22;6080;48.818;9.526;2022-09-03T20:01:30;17.10;99.90
12039;DHT22;6080;48.818;9.526;2022-09-03T20:04:16;17.10;99.90
12039;DHT22;6080;48.818;9.526;2022-09-03T20:07:04;17.10;99.90
12039;DHT22;6080;48.818;9.526;2022-09-03T20:09:51;17.10;99.90
12039;DHT22;6080;48.818;9.526;2022-09-03T20:12:39;17.10;99.90
12039;DHT22;6080;48.818;9.526;2022-09-03T20:15:07;17.10;99.90
12039;DHT22;6080;48.818;9.526;2022-09-03T20:20:40;17.10;99.90
12039;DHT22;6080;48.818;9.526;2022-09-03T20:23:05;17.10;99.90
12039;DHT22;6080;48.818;9.526;2022-09-03T20:31:43;17.10;99.90
12039;DHT22;6080;48.818;9.526;2022-09-03T20:45:52;17.00;99.90
12039;DHT22;6080;48.818;9.526;2022-09-03T21:26:32;16.60;99.90
12039;DHT22;6080;48.818;9.526;2022-09-03T21:29:05;16.60;99.90
12039;DHT22;6080;48.818;9.526;2022-09-03T21:31:39;16.50;99.90
12039;DHT22;6080;48.818;9.526;2022-09-03T21:34:24;16.50;99.90
12039;DHT22;6080;48.818;9.526;2022-09-03T21:36:55;16.40;99.90
12039;DHT22;6080;48.818;9.526;2022-09-03T21:39:33;16.30;99.90
12039;DHT22;6080;48.818;9.526;2022-09-03T21:42:20;16.30;99.90
12039;DHT22;6080;48.818;9.526;2022-09-03T21:45:01;16.20;99.90
12039;DHT22;6080;48.818;9.526;2022-09-03T21:47:39;16.20;99.90
12039;DHT22;6080;48.818;9.526;2022-09-03T21:50:43;16.20;99.90
12039;DHT22;6080;48.818;9.526;2022-09-03T21:53:17;16.20;99.90
12039;DHT22;6080;48.818;9.526;2022-09-03T21:58:45;16.20;99.90
12039;DHT22;6080;48.818;9.526;2022-09-03T22:01:27;16.20;99.90
12039;DHT22;6080;48.818;9.526;2022-09-03T22:03:55;16.20;99.90
12039;DHT22;6080;48.818;9.526;2022-09-03T22:06:27;16.20;99.90
12039;DHT22;6080;48.818;9.526;2022-09-03T22:09:34;16.20;99.90
12039;DHT22;6080;48.818;9.526;2022-09-03T22:12:22;16.30;99.90
12039;DHT22;6080;48.818;9.526;2022-09-03T22:14:52;16.30;99.90
12039;DHT22;6080;48.818;9.526;2022-09-03T22:19:49;16.40;99.90
12039;DHT22;6080;48.818;9.526;2022-09-03T22:22:31;16.40;99.90
12039;DHT22;6080;48.818;9.526;2022-09-03T22:28:22;16.50;99.90
12039;DHT22;6080;48.818;9.526;2022-09-03T22:31:03;16.50;99.90
12039;DHT22;6080;48.818;9.526;2022-09-03T22:33:32;16.50;99.90
12039;DHT22;6080;48.818;9.526;2022-09-03T22:42:11;16.50;99.90
12039;DHT22;6080;48.818;9.526;2022-09-03T22:50:27;16.70;99.90
12039;DHT22;6080;48.818;9.526;2022-09-03T22:55:41;16.70;99.90